Terminal Aerodrome Forecast
Issued by NWS

Home | Current Version | Previous Version | Text Only | Print | Product List | Glossary Off
Versions: 1 2 3 4 5 6 7 8 9 10 11 12 13 14 15 16 17 18

000
FTUS42 KMHX 251500 AAA
TAFISO
TAF AMD
KISO 251511Z 2515/2612 23005KT 5SM -RA BKN010 OVC040
      TEMPO 2515/2519 3SM -RA BR OVC007
     FM251900 34004KT 4SM -RA BR OVC010
     FM260200 03004KT 4SM -RA BR OVC005
      AMD LTD TO CLD VIS AND WIND=

USA.gov is the U.S. government's official web portal to all federal, state and local government web resources and services.